Time;durP1;ratioP1;P1;durP2;ratioP2;P2;SDS_P1;SDS_P2;PMS_P1;PMS_P2;Temp;Humidity;BMP_temperature;BMP_pressure;BME280_temperature;BME280_humidity;BME280_pressure;Samples;Min_cycle;Max_cycle;Signal;HPM_P1;HPM_P2
2021/06/28 00:00:00;;;;;;;15.02;7.00;;;;;;;;;;5060923;28;20040;-71
2021/06/28 00:02:30;;;;;;;13.80;6.70;;;;;;;;;;5063016;28;20052;-71
2021/06/28 00:04:56;;;;;;;12.60;6.85;;;;;;;;;;5045905;28;20412;-71
2021/06/28 00:07:23;;;;;;;10.10;7.00;;;;;;;;;;5061223;28;20060;-71
2021/06/28 00:09:49;;;;;;;13.10;7.10;;;;;;;;;;5057619;28;20161;-72
2021/06/28 00:12:15;;;;;;;11.68;6.93;;;;;;;;;;5047364;28;20064;-72
2021/06/28 00:14:42;;;;;;;11.98;6.45;;;;;;;;;;5063839;28;20075;-72
2021/06/28 00:17:08;;;;;;;13.75;7.75;;;;;;;;;;5065368;28;20348;-71
2021/06/28 00:19:35;;;;;;;11.15;7.32;;;;;;;;;;5063614;28;20048;-71
2021/06/28 00:22:01;;;;;;;16.13;7.57;;;;;;;;;;5057719;28;20123;-72
2021/06/28 00:24:28;;;;;;;11.55;6.80;;;;;;;;;;5063663;28;20048;-71
2021/06/28 00:26:54;;;;;;;12.57;7.78;;;;;;;;;;5064347;28;20064;-71
2021/06/28 00:29:21;;;;;;;13.55;6.90;;;;;;;;;;5061026;28;20123;-71
2021/06/28 00:31:51;;;;;;;9.60;6.82;;;;;;;;;;5056170;28;20036;-71
2021/06/28 00:34:17;;;;;;;10.07;6.80;;;;;;;;;;5041621;28;20505;-72
2021/06/28 00:36:43;;;;;;;12.63;7.07;;;;;;;;;;5060325;28;20112;-71
2021/06/28 00:39:10;;;;;;;13.23;6.93;;;;;;;;;;5047458;28;20056;-71
2021/06/28 00:41:36;;;;;;;9.00;6.50;;;;;;;;;;5060629;28;20070;-71
2021/06/28 00:44:02;;;;;;;12.23;7.38;;;;;;;;;;5061359;28;20052;-72
2021/06/28 00:46:29;;;;;;;12.77;7.20;;;;;;;;;;5064553;28;20408;-71
2021/06/28 00:48:56;;;;;;;10.15;6.90;;;;;;;;;;5065041;28;20071;-71
2021/06/28 00:51:23;;;;;;;14.85;6.90;;;;;;;;;;5059355;28;20045;-71
2021/06/28 00:53:50;;;;;;;15.50;6.90;;;;;;;;;;5058544;28;20036;-71
2021/06/28 00:56:16;;;;;;;20.23;7.70;;;;;;;;;;5047378;28;20041;-71
2021/06/28 00:58:43;;;;;;;13.95;6.45;;;;;;;;;;5060339;28;20173;-71
2021/06/28 01:01:10;;;;;;;10.80;6.50;;;;;;;;;;5061633;28;20044;-71
2021/06/28 01:03:37;;;;;;;14.57;6.97;;;;;;;;;;5060423;28;20119;-71
2021/06/28 01:06:04;;;;;;;12.18;6.72;;;;;;;;;;5057650;28;20040;-72
2021/06/28 01:08:30;;;;;;;12.77;6.72;;;;;;;;;;5063578;28;20051;-71
2021/06/28 01:10:56;;;;;;;10.00;6.70;;;;;;;;;;5061230;28;20040;-71
2021/06/28 01:13:23;;;;;;;13.98;6.90;;;;;;;;;;5058037;28;20041;-71
2021/06/28 01:15:49;;;;;;;13.65;6.50;;;;;;;;;;5060423;28;20052;-71
2021/06/28 01:18:16;;;;;;;12.63;6.20;;;;;;;;;;5060633;28;20093;-71
2021/06/28 01:20:43;;;;;;;14.27;6.30;;;;;;;;;;5057715;28;20063;-71
2021/06/28 01:23:12;;;;;;;9.77;6.15;;;;;;;;;;5061539;28;20048;-71
2021/06/28 01:25:39;;;;;;;11.52;7.00;;;;;;;;;;5061910;28;20044;-71
2021/06/28 01:28:06;;;;;;;9.95;6.90;;;;;;;;;;5061573;28;20056;-71
2021/06/28 01:30:32;;;;;;;17.00;7.88;;;;;;;;;;5056767;28;20048;-71
2021/06/28 01:32:58;;;;;;;13.70;7.07;;;;;;;;;;5058589;28;20048;-72
2021/06/28 01:35:25;;;;;;;10.57;6.93;;;;;;;;;;5062822;28;20075;-71
2021/06/28 01:37:51;;;;;;;10.43;6.53;;;;;;;;;;5059183;28;20055;-71
2021/06/28 01:40:18;;;;;;;9.88;6.80;;;;;;;;;;5058217;28;20052;-72
2021/06/28 01:42:45;;;;;;;12.52;6.70;;;;;;;;;;5062337;28;20417;-72
2021/06/28 01:45:15;;;;;;;17.30;7.93;;;;;;;;;;5033544;28;20055;-72
2021/06/28 01:47:48;;;;;;;11.05;6.93;;;;;;;;;;5016293;28;20045;-72
2021/06/28 01:50:15;;;;;;;12.48;7.85;;;;;;;;;;5043667;28;20104;-72
2021/06/28 01:52:42;;;;;;;13.73;6.80;;;;;;;;;;5040907;28;20062;-71
2021/06/28 01:55:09;;;;;;;12.23;7.35;;;;;;;;;;5039720;28;20029;-71
2021/06/28 01:57:36;;;;;;;10.98;6.75;;;;;;;;;;5041799;28;20044;-72
2021/06/28 02:00:05;;;;;;;12.75;7.18;;;;;;;;;;5021670;28;20041;-72
2021/06/28 02:02:31;;;;;;;12.70;6.88;;;;;;;;;;5037405;28;20045;-71
2021/06/28 02:04:58;;;;;;;11.90;7.22;;;;;;;;;;5034535;28;20037;-71
2021/06/28 02:07:24;;;;;;;13.95;6.82;;;;;;;;;;5036252;28;20114;-72
2021/06/28 02:09:51;;;;;;;11.05;7.43;;;;;;;;;;5039486;28;20672;-71
2021/06/28 02:12:18;;;;;;;13.85;8.00;;;;;;;;;;5019511;28;20138;-72
2021/06/28 02:14:44;;;;;;;15.10;8.45;;;;;;;;;;5041157;28;20037;-72
2021/06/28 02:17:10;;;;;;;12.98;7.05;;;;;;;;;;5039687;28;20122;-71
2021/06/28 02:19:37;;;;;;;13.20;8.27;;;;;;;;;;5037634;28;20111;-72
2021/06/28 02:22:03;;;;;;;9.80;6.97;;;;;;;;;;5035250;28;20087;-71
2021/06/28 02:24:29;;;;;;;17.10;8.73;;;;;;;;;;5039548;28;20175;-71
2021/06/28 02:26:56;;;;;;;13.40;7.20;;;;;;;;;;5041066;28;20217;-72
2021/06/28 02:29:22;;;;;;;13.55;7.20;;;;;;;;;;5037023;28;20088;-71
2021/06/28 02:31:49;;;;;;;11.40;7.43;;;;;;;;;;5040304;28;20114;-72
2021/06/28 02:34:15;;;;;;;10.90;7.15;;;;;;;;;;5042215;28;20042;-72
2021/06/28 02:36:41;;;;;;;13.65;6.97;;;;;;;;;;5045382;28;20131;-71
2021/06/28 02:39:08;;;;;;;12.35;6.90;;;;;;;;;;5041208;28;20105;-71
2021/06/28 02:41:35;;;;;;;12.93;7.43;;;;;;;;;;5046053;28;20407;-71
2021/06/28 02:44:01;;;;;;;14.20;8.40;;;;;;;;;;5028089;28;20041;-71
2021/06/28 02:46:28;;;;;;;14.07;8.10;;;;;;;;;;5063817;28;20035;-71
2021/06/28 02:48:54;;;;;;;11.23;7.75;;;;;;;;;;5063111;28;20090;-71
2021/06/28 02:51:20;;;;;;;14.63;8.20;;;;;;;;;;5064576;28;20055;-72
2021/06/28 02:53:47;;;;;;;11.38;7.93;;;;;;;;;;5062977;28;20424;-71
2021/06/28 02:56:14;;;;;;;16.13;8.10;;;;;;;;;;5044988;28;20461;-72
2021/06/28 02:58:52;;;;;;;16.27;8.35;;;;;;;;;;5063228;28;20097;-72
2021/06/28 03:01:19;;;;;;;16.10;8.35;;;;;;;;;;5064202;28;20033;-72
2021/06/28 03:03:46;;;;;;;16.75;8.63;;;;;;;;;;5043687;28;20059;-71
2021/06/28 03:06:12;;;;;;;17.17;9.02;;;;;;;;;;5062281;28;20063;-72
2021/06/28 03:08:39;;;;;;;17.60;8.93;;;;;;;;;;5059233;28;20045;-71
2021/06/28 03:11:05;;;;;;;14.85;9.13;;;;;;;;;;5062587;28;20033;-71
2021/06/28 03:13:33;;;;;;;22.92;9.70;;;;;;;;;;5064486;28;20053;-71
2021/06/28 03:16:00;;;;;;;15.95;10.50;;;;;;;;;;5066175;28;20066;-71
2021/06/28 03:18:26;;;;;;;18.88;10.25;;;;;;;;;;5046309;28;20048;-71
2021/06/28 03:20:53;;;;;;;14.90;10.15;;;;;;;;;;5061642;28;20412;-72
2021/06/28 03:23:20;;;;;;;16.10;10.38;;;;;;;;;;5063953;28;20542;-72
2021/06/28 03:25:46;;;;;;;17.13;10.50;;;;;;;;;;5064217;28;20037;-71
2021/06/28 03:28:13;;;;;;;23.58;10.25;;;;;;;;;;5046535;28;20131;-71
2021/06/28 03:30:40;;;;;;;17.27;10.40;;;;;;;;;;5043689;28;20053;-71
2021/06/28 03:33:06;;;;;;;17.60;10.98;;;;;;;;;;5066767;28;20059;-72
2021/06/28 03:35:33;;;;;;;19.23;11.48;;;;;;;;;;5046306;28;20127;-72
2021/06/28 03:37:59;;;;;;;14.63;10.68;;;;;;;;;;5063163;28;20463;-71
2021/06/28 03:40:25;;;;;;;17.42;10.55;;;;;;;;;;5060225;28;20044;-72
2021/06/28 03:42:52;;;;;;;18.05;10.80;;;;;;;;;;5066147;28;20068;-71
2021/06/28 03:45:18;;;;;;;13.68;9.82;;;;;;;;;;5062451;28;20054;-71
2021/06/28 03:47:45;;;;;;;20.85;10.25;;;;;;;;;;5060428;28;20098;-72
2021/06/28 03:50:12;;;;;;;15.02;10.43;;;;;;;;;;5062469;28;20143;-72
2021/06/28 03:52:38;;;;;;;13.32;9.75;;;;;;;;;;5061858;28;20055;-71
2021/06/28 03:55:06;;;;;;;14.55;8.95;;;;;;;;;;5064012;28;20119;-72
2021/06/28 03:57:32;;;;;;;11.45;7.90;;;;;;;;;;5063845;28;20568;-71
2021/06/28 04:00:00;;;;;;;10.77;7.68;;;;;;;;;;5061417;28;20033;-72
2021/06/28 04:02:27;;;;;;;15.13;9.15;;;;;;;;;;5063428;28;20044;-72
2021/06/28 04:04:53;;;;;;;14.98;8.93;;;;;;;;;;5061589;28;20085;-71
2021/06/28 04:07:20;;;;;;;11.50;7.07;;;;;;;;;;5060432;28;20052;-71
2021/06/28 04:09:46;;;;;;;11.82;7.53;;;;;;;;;;5060524;28;20036;-72
2021/06/28 04:12:12;;;;;;;12.38;7.53;;;;;;;;;;5063888;28;20044;-72
2021/06/28 04:14:40;;;;;;;13.10;7.15;;;;;;;;;;5058912;28;20040;-72
2021/06/28 04:17:06;;;;;;;11.65;7.30;;;;;;;;;;5064263;28;20041;-71
2021/06/28 04:19:33;;;;;;;15.63;7.95;;;;;;;;;;5064202;28;20502;-72
2021/06/28 04:21:59;;;;;;;13.07;7.30;;;;;;;;;;5059997;28;20190;-71
2021/06/28 04:24:25;;;;;;;13.10;8.23;;;;;;;;;;5056043;28;20041;-72
2021/06/28 04:26:51;;;;;;;13.15;7.30;;;;;;;;;;5062714;28;20047;-72
2021/06/28 04:29:19;;;;;;;10.90;7.03;;;;;;;;;;5062588;28;20052;-71
2021/06/28 04:31:46;;;;;;;14.23;7.47;;;;;;;;;;5062252;28;20067;-71
2021/06/28 04:34:12;;;;;;;13.98;7.00;;;;;;;;;;5059241;28;20056;-71
2021/06/28 04:36:39;;;;;;;20.40;8.02;;;;;;;;;;5060682;28;20044;-71
2021/06/28 04:39:05;;;;;;;12.80;7.75;;;;;;;;;;5063831;28;20400;-72
2021/06/28 04:41:31;;;;;;;14.00;6.88;;;;;;;;;;5044589;28;20056;-71
2021/06/28 04:43:57;;;;;;;10.85;6.93;;;;;;;;;;5056580;28;20511;-71
2021/06/28 04:46:24;;;;;;;14.20;6.50;;;;;;;;;;5043969;28;20519;-71
2021/06/28 04:48:50;;;;;;;15.10;6.55;;;;;;;;;;5063409;28;20052;-72
2021/06/28 04:51:16;;;;;;;13.15;6.45;;;;;;;;;;5059574;28;20048;-72
2021/06/28 04:53:46;;;;;;;12.98;6.72;;;;;;;;;;5056982;28;20059;-71
2021/06/28 04:56:12;;;;;;;13.93;6.15;;;;;;;;;;5061454;28;20060;-72
2021/06/28 04:58:38;;;;;;;18.15;7.15;;;;;;;;;;5061652;28;20053;-71
2021/06/28 05:01:05;;;;;;;13.82;6.63;;;;;;;;;;5062849;28;20063;-71
2021/06/28 05:03:31;;;;;;;13.73;7.35;;;;;;;;;;5059205;28;20185;-71
2021/06/28 05:05:57;;;;;;;9.50;6.85;;;;;;;;;;5060832;28;20091;-71
2021/06/28 05:08:24;;;;;;;13.98;7.68;;;;;;;;;;5056979;28;20045;-71
2021/06/28 05:10:50;;;;;;;13.93;7.35;;;;;;;;;;5060695;28;20072;-71
2021/06/28 05:13:16;;;;;;;15.85;6.90;;;;;;;;;;5064015;28;20048;-71
2021/06/28 05:15:43;;;;;;;13.10;7.75;;;;;;;;;;5059733;28;20123;-71
2021/06/28 05:18:09;;;;;;;11.35;6.70;;;;;;;;;;5063090;28;20063;-71
2021/06/28 05:20:35;;;;;;;12.77;6.93;;;;;;;;;;5059498;28;20040;-71
2021/06/28 05:23:02;;;;;;;13.93;6.75;;;;;;;;;;5061658;28;20093;-71
2021/06/28 05:25:28;;;;;;;15.15;7.70;;;;;;;;;;5058869;28;20041;-72
2021/06/28 05:27:54;;;;;;;13.38;7.07;;;;;;;;;;5062215;28;20052;-72
2021/06/28 05:30:21;;;;;;;17.75;8.10;;;;;;;;;;5059785;28;20037;-72
2021/06/28 05:32:48;;;;;;;14.77;8.60;;;;;;;;;;5060354;28;20442;-72
2021/06/28 05:35:14;;;;;;;16.13;7.32;;;;;;;;;;5058563;28;20435;-71
2021/06/28 05:37:40;;;;;;;9.55;6.68;;;;;;;;;;5060884;28;20055;-72
2021/06/28 05:40:07;;;;;;;14.63;6.93;;;;;;;;;;5060154;28;20048;-72
2021/06/28 05:42:34;;;;;;;11.38;7.05;;;;;;;;;;5052206;28;20413;-71
2021/06/28 05:45:00;;;;;;;17.30;7.78;;;;;;;;;;5069412;28;20364;-71
2021/06/28 05:47:27;;;;;;;15.43;7.88;;;;;;;;;;5068949;28;20438;-72
2021/06/28 05:49:53;;;;;;;14.85;6.88;;;;;;;;;;5069239;28;20040;-72
2021/06/28 05:52:20;;;;;;;11.25;6.88;;;;;;;;;;5065779;28;20082;-72
2021/06/28 05:54:48;;;;;;;15.18;8.30;;;;;;;;;;5068731;28;20059;-72
2021/06/28 05:57:15;;;;;;;14.57;7.22;;;;;;;;;;5069903;28;20100;-72
2021/06/28 05:59:42;;;;;;;13.40;7.45;;;;;;;;;;5066946;28;20092;-72
2021/06/28 06:02:08;;;;;;;14.25;7.78;;;;;;;;;;5068091;28;20086;-72
2021/06/28 06:04:34;;;;;;;13.27;7.30;;;;;;;;;;5069447;28;20044;-72
2021/06/28 06:07:00;;;;;;;13.18;7.40;;;;;;;;;;5068631;28;20048;-72
2021/06/28 06:09:32;;;;;;;15.50;7.85;;;;;;;;;;5033975;28;20041;-72
2021/06/28 06:11:59;;;;;;;15.40;8.00;;;;;;;;;;5059899;28;20064;-72
2021/06/28 06:14:25;;;;;;;19.10;7.95;;;;;;;;;;5058889;28;20111;-72
2021/06/28 06:16:51;;;;;;;13.63;8.18;;;;;;;;;;5055933;28;20041;-72
2021/06/28 06:19:18;;;;;;;15.23;8.68;;;;;;;;;;5072802;28;20045;-72
2021/06/28 06:21:44;;;;;;;20.13;9.73;;;;;;;;;;5072715;28;20063;-72
2021/06/28 06:24:11;;;;;;;21.35;9.90;;;;;;;;;;5073079;28;20078;-72
2021/06/28 06:26:37;;;;;;;15.32;8.57;;;;;;;;;;5073407;28;20098;-72
2021/06/28 06:29:03;;;;;;;13.60;9.27;;;;;;;;;;5072307;28;20140;-72
2021/06/28 06:31:30;;;;;;;15.70;9.02;;;;;;;;;;5072893;28;20507;-72
2021/06/28 06:33:57;;;;;;;20.02;10.02;;;;;;;;;;5072662;28;20044;-72
2021/06/28 06:36:24;;;;;;;12.55;8.65;;;;;;;;;;5072146;28;20373;-72
2021/06/28 06:38:50;;;;;;;14.75;8.60;;;;;;;;;;5072971;28;20049;-72
2021/06/28 06:41:16;;;;;;;15.57;8.90;;;;;;;;;;5072772;28;20075;-72
2021/06/28 06:43:43;;;;;;;14.52;8.60;;;;;;;;;;5072087;28;20068;-72
2021/06/28 06:46:09;;;;;;;14.20;8.20;;;;;;;;;;5054247;28;20404;-72
2021/06/28 06:48:36;;;;;;;12.75;8.48;;;;;;;;;;5072458;28;20076;-72
2021/06/28 06:51:03;;;;;;;13.65;8.43;;;;;;;;;;5071909;28;20041;-72
2021/06/28 06:53:29;;;;;;;17.15;9.27;;;;;;;;;;5072330;28;20044;-72
2021/06/28 06:55:57;;;;;;;12.65;8.60;;;;;;;;;;5072487;28;20131;-72
2021/06/28 06:58:23;;;;;;;11.73;8.27;;;;;;;;;;5071444;28;20546;-72
2021/06/28 07:01:13;;;;;;;13.90;8.18;;;;;;;;;;5056379;28;20037;-72
2021/06/28 07:03:44;;;;;;;14.55;7.95;;;;;;;;;;5071482;28;20044;-72
2021/06/28 07:06:10;;;;;;;13.35;8.02;;;;;;;;;;5072501;28;20087;-72
2021/06/28 07:08:37;;;;;;;15.10;8.15;;;;;;;;;;5072141;28;20122;-72
2021/06/28 07:11:06;;;;;;;13.93;8.93;;;;;;;;;;5053711;28;20063;-73
2021/06/28 07:13:32;;;;;;;11.80;8.15;;;;;;;;;;5071162;28;20053;-72
2021/06/28 07:15:58;;;;;;;15.35;8.77;;;;;;;;;;5072173;28;20186;-72
2021/06/28 07:18:25;;;;;;;12.05;8.43;;;;;;;;;;5071605;28;20079;-72
2021/06/28 07:20:51;;;;;;;24.85;8.40;;;;;;;;;;5071972;28;20032;-72
2021/06/28 07:23:18;;;;;;;12.18;8.63;;;;;;;;;;5070675;28;20071;-72
2021/06/28 07:25:44;;;;;;;15.68;8.30;;;;;;;;;;5071361;28;20045;-72
2021/06/28 07:28:11;;;;;;;14.05;8.02;;;;;;;;;;5071889;28;20049;-72
2021/06/28 07:30:37;;;;;;;18.13;8.95;;;;;;;;;;5071739;28;20040;-72
2021/06/28 07:33:04;;;;;;;12.90;8.30;;;;;;;;;;5071261;28;20151;-72
2021/06/28 07:35:31;;;;;;;17.75;9.15;;;;;;;;;;5071901;28;20037;-72
2021/06/28 07:37:57;;;;;;;15.73;8.95;;;;;;;;;;5071559;28;20036;-72
2021/06/28 07:40:23;;;;;;;10.60;8.65;;;;;;;;;;5071149;28;20039;-72
2021/06/28 07:42:52;;;;;;;17.92;8.98;;;;;;;;;;5071936;28;20102;-72
2021/06/28 07:45:20;;;;;;;15.75;8.70;;;;;;;;;;5071527;28;20095;-72
2021/06/28 07:47:47;;;;;;;12.82;9.65;;;;;;;;;;5070946;28;20349;-72
2021/06/28 07:50:13;;;;;;;12.30;9.05;;;;;;;;;;5071680;28;20063;-72
2021/06/28 07:52:40;;;;;;;16.33;9.90;;;;;;;;;;5070753;28;20517;-72
2021/06/28 07:55:08;;;;;;;14.13;9.65;;;;;;;;;;5071552;28;20040;-72
2021/06/28 07:57:34;;;;;;;13.75;9.30;;;;;;;;;;5071127;28;20064;-72
2021/06/28 08:00:00;;;;;;;14.85;8.75;;;;;;;;;;5068169;28;20095;-73
2021/06/28 08:02:27;;;;;;;15.77;9.90;;;;;;;;;;5064234;28;20094;-73
2021/06/28 08:04:53;;;;;;;17.08;10.00;;;;;;;;;;5066290;28;20127;-72
2021/06/28 08:07:21;;;;;;;14.40;10.07;;;;;;;;;;5066186;28;20040;-72
2021/06/28 08:09:47;;;;;;;12.88;9.07;;;;;;;;;;5065747;28;20095;-72
2021/06/28 08:12:13;;;;;;;14.05;10.10;;;;;;;;;;5059511;28;20048;-72
2021/06/28 08:14:39;;;;;;;20.10;10.05;;;;;;;;;;5060414;28;21619;-73
2021/06/28 08:17:06;;;;;;;14.40;10.25;;;;;;;;;;5058763;28;20448;-72
2021/06/28 08:19:32;;;;;;;14.40;9.38;;;;;;;;;;5060163;28;20045;-72
2021/06/28 08:21:58;;;;;;;14.32;9.40;;;;;;;;;;5060497;28;20451;-72
2021/06/28 08:24:25;;;;;;;13.63;8.90;;;;;;;;;;5043701;28;20045;-72
2021/06/28 08:26:51;;;;;;;13.88;10.00;;;;;;;;;;5063051;28;20041;-72
2021/06/28 08:29:19;;;;;;;14.50;10.07;;;;;;;;;;5060083;28;20139;-72
2021/06/28 08:31:45;;;;;;;16.23;10.30;;;;;;;;;;5062198;28;20043;-72
2021/06/28 08:34:14;;;;;;;13.93;8.80;;;;;;;;;;5059296;28;20079;-72
2021/06/28 08:36:44;;;;;;;12.95;10.32;;;;;;;;;;5058625;28;20113;-72
2021/06/28 08:39:10;;;;;;;15.40;9.60;;;;;;;;;;5059486;28;20632;-72
2021/06/28 08:41:38;;;;;;;13.82;9.23;;;;;;;;;;5063132;28;20071;-73
2021/06/28 08:44:04;;;;;;;15.25;9.75;;;;;;;;;;5059969;28;20051;-72
2021/06/28 08:46:31;;;;;;;13.38;10.10;;;;;;;;;;5040134;28;20120;-72
2021/06/28 08:48:57;;;;;;;13.73;9.95;;;;;;;;;;5060570;28;20102;-72
2021/06/28 08:51:23;;;;;;;11.75;9.93;;;;;;;;;;5061986;28;20101;-72
2021/06/28 08:53:54;;;;;;;17.88;10.80;;;;;;;;;;5062742;28;20399;-72
2021/06/28 08:56:21;;;;;;;15.23;9.73;;;;;;;;;;5051767;28;20093;-72
2021/06/28 08:58:47;;;;;;;12.57;8.90;;;;;;;;;;5038595;28;20503;-72
2021/06/28 09:01:14;;;;;;;13.68;9.52;;;;;;;;;;5047771;28;20477;-72
2021/06/28 09:03:40;;;;;;;36.63;13.95;;;;;;;;;;5058615;28;20471;-72
2021/06/28 09:06:07;;;;;;;38.63;12.48;;;;;;;;;;5057518;28;20833;-72
2021/06/28 09:08:35;;;;;;;14.55;9.27;;;;;;;;;;5064966;28;20044;-72
2021/06/28 09:11:02;;;;;;;14.85;9.43;;;;;;;;;;5055275;28;20045;-72
2021/06/28 09:13:36;;;;;;;16.73;9.50;;;;;;;;;;5057146;28;20056;-72
2021/06/28 09:16:13;;;;;;;16.65;10.35;;;;;;;;;;5062850;28;20099;-72
2021/06/28 09:18:49;;;;;;;17.60;11.05;;;;;;;;;;5064943;28;20049;-72
2021/06/28 09:21:16;;;;;;;11.73;9.57;;;;;;;;;;5064537;28;20040;-72
2021/06/28 09:23:42;;;;;;;14.50;10.70;;;;;;;;;;5040366;28;20045;-72
2021/06/28 09:26:15;;;;;;;13.15;11.13;;;;;;;;;;5060287;28;20060;-71
2021/06/28 09:28:45;;;;;;;13.57;9.50;;;;;;;;;;5056505;28;20267;-72
2021/06/28 09:31:17;;;;;;;12.93;10.00;;;;;;;;;;5057543;28;20068;-71
2021/06/28 09:33:43;;;;;;;16.70;10.30;;;;;;;;;;5057218;28;20481;-72
2021/06/28 09:36:17;;;;;;;18.55;10.82;;;;;;;;;;5059881;28;20064;-72
2021/06/28 09:38:43;;;;;;;14.32;9.48;;;;;;;;;;5061260;28;20045;-72
2021/06/28 09:41:26;;;;;;;15.25;9.98;;;;;;;;;;5056466;28;20127;-72
2021/06/28 09:43:54;;;;;;;11.95;9.13;;;;;;;;;;5064107;28;20051;-72
2021/06/28 09:46:21;;;;;;;14.20;9.00;;;;;;;;;;5065897;28;20397;-72
2021/06/28 09:48:49;;;;;;;14.95;10.13;;;;;;;;;;5070617;28;20040;-72
2021/06/28 09:51:19;;;;;;;13.00;9.32;;;;;;;;;;5067724;28;20041;-72
2021/06/28 09:53:46;;;;;;;11.35;8.52;;;;;;;;;;5063660;28;20059;-72
2021/06/28 09:56:29;;;;;;;11.65;9.27;;;;;;;;;;5062380;28;20047;-72
2021/06/28 09:58:55;;;;;;;14.32;10.15;;;;;;;;;;5063599;28;20113;-72
2021/06/28 10:01:25;;;;;;;12.52;9.95;;;;;;;;;;5067057;28;20041;-72
2021/06/28 10:03:53;;;;;;;14.20;10.02;;;;;;;;;;5066208;28;20051;-72
2021/06/28 10:08:50;;;;;;;11.98;8.95;;;;;;;;;;5066150;28;20060;-72
2021/06/28 10:11:21;;;;;;;11.70;8.18;;;;;;;;;;5067616;28;20040;-72
2021/06/28 10:13:53;;;;;;;10.43;8.65;;;;;;;;;;5065421;28;20070;-72
2021/06/28 10:16:21;;;;;;;11.75;8.90;;;;;;;;;;5060534;28;20056;-72
2021/06/28 10:18:48;;;;;;;12.48;8.75;;;;;;;;;;5060632;28;20045;-72
2021/06/28 10:21:14;;;;;;;13.02;9.23;;;;;;;;;;5058032;28;20052;-72
2021/06/28 10:23:41;;;;;;;12.60;8.05;;;;;;;;;;5067682;28;20047;-72
2021/06/28 10:26:07;;;;;;;9.73;8.10;;;;;;;;;;5061194;28;20055;-72
2021/06/28 10:28:35;;;;;;;10.77;8.10;;;;;;;;;;5066812;28;20091;-72
2021/06/28 10:31:02;;;;;;;11.95;8.15;;;;;;;;;;5062432;28;20047;-72
2021/06/28 10:33:29;;;;;;;11.30;7.90;;;;;;;;;;5060376;28;20119;-72
2021/06/28 10:36:04;;;;;;;10.18;7.72;;;;;;;;;;5063703;28;20036;-72
2021/06/28 10:38:44;;;;;;;11.43;8.98;;;;;;;;;;5067104;28;20052;-72
2021/06/28 10:41:11;;;;;;;9.80;7.63;;;;;;;;;;5065763;28;20060;-72
2021/06/28 10:43:38;;;;;;;11.38;8.18;;;;;;;;;;5040603;28;20152;-73
2021/06/28 10:46:06;;;;;;;10.85;7.70;;;;;;;;;;5065176;28;20072;-73
2021/06/28 10:48:44;;;;;;;10.40;8.88;;;;;;;;;;5068933;28;20059;-73
2021/06/28 10:51:10;;;;;;;11.80;7.70;;;;;;;;;;5051115;28;20142;-73
2021/06/28 10:53:36;;;;;;;10.82;8.63;;;;;;;;;;5069603;28;20045;-73
2021/06/28 10:58:55;;;;;;;11.60;8.02;;;;;;;;;;5072953;28;20036;-73
2021/06/28 11:01:42;;;;;;;11.90;8.25;;;;;;;;;;5066655;28;20138;-73
2021/06/28 11:04:11;;;;;;;14.55;9.48;;;;;;;;;;5062415;28;20055;-73
2021/06/28 11:06:38;;;;;;;11.13;8.50;;;;;;;;;;5061060;28;20063;-73
2021/06/28 11:09:06;;;;;;;10.60;7.82;;;;;;;;;;5069773;28;20071;-73
2021/06/28 11:11:58;;;;;;;10.80;9.20;;;;;;;;;;5064840;28;20048;-73
2021/06/28 11:14:25;;;;;;;14.00;8.77;;;;;;;;;;5055662;28;20185;-73
2021/06/28 11:17:06;;;;;;;10.25;7.72;;;;;;;;;;5063559;28;20861;-73
2021/06/28 11:19:46;;;;;;;9.90;8.02;;;;;;;;;;5066601;28;20429;-73
2021/06/28 11:22:30;;;;;;;11.02;9.40;;;;;;;;;;5062803;28;20044;-73
2021/06/28 11:24:58;;;;;;;14.10;9.45;;;;;;;;;;5063630;28;20052;-73
2021/06/28 11:27:24;;;;;;;10.75;8.13;;;;;;;;;;5060988;28;20560;-73
2021/06/28 11:29:53;;;;;;;11.90;8.68;;;;;;;;;;5059399;28;20102;-73
2021/06/28 11:32:25;;;;;;;12.15;8.32;;;;;;;;;;5058452;28;20079;-73
2021/06/28 11:34:52;;;;;;;;;;;;;;;;;;5066595;28;20040;-73
2021/06/28 11:37:18;;;;;;;9.85;7.47;;;;;;;;;;5063871;28;19978;-73
2021/06/28 11:39:58;;;;;;;8.82;6.70;;;;;;;;;;5058597;28;20045;-73
2021/06/28 11:42:34;;;;;;;10.95;8.45;;;;;;;;;;5046596;28;20068;-73
2021/06/28 11:45:02;;;;;;;10.95;8.25;;;;;;;;;;5064541;28;20044;-73
2021/06/28 11:47:45;;;;;;;13.07;8.00;;;;;;;;;;5062265;28;20135;-73
2021/06/28 11:50:11;;;;;;;;;;;;;;;;;;5063845;28;20047;-73
2021/06/28 11:52:37;;;;;;;12.65;7.95;;;;;;;;;;5065288;28;19920;-73
2021/06/28 11:55:05;;;;;;;12.77;8.15;;;;;;;;;;5062320;28;20044;-73
2021/06/28 11:57:31;;;;;;;15.13;8.40;;;;;;;;;;5064941;28;20055;-73
2021/06/28 11:59:57;;;;;;;10.63;7.65;;;;;;;;;;5067412;28;20048;-73
2021/06/28 12:02:24;;;;;;;11.23;7.68;;;;;;;;;;5061041;28;20480;-73
2021/06/28 12:04:59;;;;;;;13.82;8.07;;;;;;;;;;5057484;28;20063;-73
2021/06/28 12:07:26;;;;;;;13.07;7.32;;;;;;;;;;5062809;28;20318;-73
2021/06/28 12:09:52;;;;;;;16.63;7.53;;;;;;;;;;5060396;28;20048;-73
2021/06/28 12:12:20;;;;;;;12.63;7.13;;;;;;;;;;5065786;28;20392;-73
2021/06/28 12:14:48;;;;;;;16.58;7.18;;;;;;;;;;5062594;28;20106;-73
2021/06/28 12:17:17;;;;;;;13.50;7.15;;;;;;;;;;5064347;28;20039;-73
2021/06/28 12:19:46;;;;;;;13.07;7.80;;;;;;;;;;5061362;28;20067;-73
2021/06/28 12:22:17;;;;;;;19.83;7.88;;;;;;;;;;5063105;28;20036;-73
2021/06/28 12:24:44;;;;;;;15.63;7.68;;;;;;;;;;5059320;28;20041;-73
2021/06/28 12:27:12;;;;;;;13.80;7.05;;;;;;;;;;5058727;28;20751;-73
2021/06/28 12:29:40;;;;;;;14.93;8.52;;;;;;;;;;5049780;28;20056;-73
2021/06/28 12:32:12;;;;;;;21.65;9.13;;;;;;;;;;5069293;28;20433;-73
2021/06/28 12:34:38;;;;;;;16.23;7.88;;;;;;;;;;5067548;28;20060;-73
2021/06/28 12:37:08;;;;;;;14.27;7.55;;;;;;;;;;5063658;28;20053;-73
2021/06/28 12:39:35;;;;;;;15.75;7.28;;;;;;;;;;5068118;28;20105;-72
2021/06/28 12:42:12;;;;;;;14.88;7.40;;;;;;;;;;5064846;28;20452;-73
2021/06/28 12:44:39;;;;;;;17.77;7.40;;;;;;;;;;5063037;28;20500;-73
2021/06/28 12:47:06;;;;;;;15.57;8.10;;;;;;;;;;5065280;28;20048;-73
2021/06/28 12:49:34;;;;;;;18.38;7.13;;;;;;;;;;5063024;28;20086;-73
2021/06/28 12:52:20;;;;;;;18.27;7.35;;;;;;;;;;5040924;28;20036;-73
2021/06/28 12:54:58;;;;;;;22.77;7.93;;;;;;;;;;5062976;28;20044;-73
2021/06/28 12:57:25;;;;;;;16.38;7.40;;;;;;;;;;5040300;28;20127;-73
2021/06/28 12:59:51;;;;;;;18.73;7.80;;;;;;;;;;5049200;28;20059;-73
2021/06/28 13:02:29;;;;;;;15.80;7.90;;;;;;;;;;5068160;28;20056;-73
2021/06/28 13:05:03;;;;;;;82.85;8.95;;;;;;;;;;5060424;28;20045;-73
2021/06/28 13:07:30;;;;;;;15.80;7.82;;;;;;;;;;5064482;28;20048;-73
2021/06/28 13:10:00;;;;;;;18.88;8.15;;;;;;;;;;5063215;28;20553;-73
2021/06/28 13:12:27;;;;;;;17.35;8.38;;;;;;;;;;5064061;28;20041;-73
2021/06/28 13:15:17;;;;;;;17.35;8.48;;;;;;;;;;5067923;28;20090;-73
2021/06/28 13:17:43;;;;;;;17.20;8.43;;;;;;;;;;5062156;28;20044;-73
2021/06/28 13:20:18;;;;;;;18.75;8.82;;;;;;;;;;5070127;28;20056;-73
2021/06/28 13:22:44;;;;;;;17.02;8.60;;;;;;;;;;5069931;28;20041;-73
2021/06/28 13:25:19;;;;;;;25.02;8.95;;;;;;;;;;5069737;28;20119;-73
2021/06/28 13:27:45;;;;;;;25.30;8.48;;;;;;;;;;5056463;28;20044;-73
2021/06/28 13:30:17;;;;;;;15.07;7.43;;;;;;;;;;5069610;28;20037;-73
2021/06/28 13:32:43;;;;;;;20.70;8.90;;;;;;;;;;5069192;28;20040;-73
2021/06/28 13:35:09;;;;;;;24.63;8.10;;;;;;;;;;5069955;28;20071;-73
2021/06/28 13:37:38;;;;;;;18.48;8.77;;;;;;;;;;5051276;28;20044;-73
2021/06/28 13:40:14;;;;;;;19.83;8.35;;;;;;;;;;5069686;28;20127;-73
2021/06/28 13:42:41;;;;;;;17.95;7.63;;;;;;;;;;5067203;28;20041;-73
2021/06/28 13:45:11;;;;;;;17.52;7.60;;;;;;;;;;5060574;28;20095;-73
2021/06/28 13:47:51;;;;;;;13.65;7.78;;;;;;;;;;5067393;28;20056;-72
2021/06/28 13:50:18;;;;;;;16.75;7.25;;;;;;;;;;5064349;28;20131;-73
2021/06/28 13:52:44;;;;;;;14.15;7.47;;;;;;;;;;5065267;28;20063;-73
2021/06/28 13:55:11;;;;;;;17.27;8.32;;;;;;;;;;5069869;28;20376;-73
2021/06/28 13:57:45;;;;;;;16.85;7.65;;;;;;;;;;5065220;28;20052;-73
2021/06/28 14:00:12;;;;;;;16.02;7.25;;;;;;;;;;5051315;28;20436;-73
2021/06/28 14:02:38;;;;;;;15.98;8.38;;;;;;;;;;5069932;28;20143;-72
2021/06/28 14:05:04;;;;;;;16.50;8.25;;;;;;;;;;5069533;28;20044;-73
2021/06/28 14:07:31;;;;;;;16.50;8.82;;;;;;;;;;5069114;28;20526;-73
2021/06/28 14:09:57;;;;;;;21.67;9.75;;;;;;;;;;5069701;28;20094;-73
2021/06/28 14:12:23;;;;;;;16.42;8.93;;;;;;;;;;5066244;28;20115;-72
2021/06/28 14:14:49;;;;;;;14.70;8.73;;;;;;;;;;5063929;28;20056;-73
2021/06/28 14:17:16;;;;;;;16.58;8.65;;;;;;;;;;5069714;28;20097;-73
2021/06/28 14:19:42;;;;;;;19.15;8.75;;;;;;;;;;5069074;28;20129;-73
2021/06/28 14:22:09;;;;;;;16.00;9.02;;;;;;;;;;5069083;28;20059;-73
2021/06/28 14:24:35;;;;;;;20.58;9.80;;;;;;;;;;5069616;28;20096;-73
2021/06/28 14:27:01;;;;;;;15.65;8.55;;;;;;;;;;5065122;28;20432;-73
2021/06/28 14:29:33;;;;;;;17.35;7.90;;;;;;;;;;5069417;28;20036;-73
2021/06/28 14:31:59;;;;;;;19.75;7.43;;;;;;;;;;5070979;28;20048;-73
2021/06/28 14:34:25;;;;;;;17.38;7.88;;;;;;;;;;5072415;28;20048;-73
2021/06/28 14:36:52;;;;;;;18.35;8.07;;;;;;;;;;5067140;28;20056;-73